OIIK  Qazvin  Airport

Qazvin, Iran

Add Bookmark
ICAO OIIK
Type Airport
Status Operational
Latitude
36° 14' 24" N
36.240101
Longitude
50° 2' 49" E
50.047100
Local (GMT +3.5 ) UTC
Dec 7, 2016 05:49 pm Dec 7, 2016 14:19
Sunrise-Sunset Local UTC
Begin Civil Twilight 06:38 am 03:08
Sunrise 07:06 am 03:36
Sunset 04:56 pm 13:26
End Civil Twilight 05:24 pm 13:54
VFR
VFR
MVFR
MVFR
IFR
IFR
LIFR
LIFR
Unknown
No Data

Current Weather

METAR Observed VFR
OIIK 071400Z 00000KT CAVOK 05/M13 Q1020 Wed, Dec 7, 2016 @ 14:00 UTC
(19 Minutes ago)
Visual Flight Rules
Wind Visibility Conditions
Calm 10 km or more
  • No significant weather
Temperatures Readings Precipitation
Current Temp
5°C
41°F
Dewpoint
-13°C
9°F
Humidity 26%
Altimeter 30.12" Hg
Sea Level Pressure 1,020 mb
Field Elevation
1,278 m
4,193 ft
None Recorded

Additional weather within a 92.6km radius of OIIK

Map ICAO Location
OIIP 87km SE (126°)
VFR
VFR
MVFR
MVFR
IFR
IFR
LIFR
LIFR
Unknown
No Data
-
-

CheckWX.com is intended as a tool to help pilots better visualize weather data. It is not intended as a substitute for an official weather briefing obtained from a Flight Service Station. CheckWX.com does not meet the FAA requirements for an official pre-flight weather briefing. Therefore, it's important that pilots still call and obtain an official FSS pre-flight weather briefing.

© 2007-2016 CheckWX.com
14:19:31 UTC